Airfield :
LOGIN :

Register | Disclaimer

   EN    FR    IT 

 










Legend :    VFR   Marginal VFR   IFR   Intensive IFR   Very Intensive IFR
Visi :
Ceiling :
>= 8 km
>= 3000ft
5 to 8 km
1000 to 3000 ft
1500m to 5 km
500 to 1000 ft
800 to 1500m
200 to 500 ft
< 800m
< 200 ft
Symbols :   Thunderstorms  Fog  Heavy snow  Heavy precipitations  Wind > 20 kt
SIGMETs :     Misc.  Thunderstorms  Icing  Turbulence  Mountain Waves  Volcanic Ashes






- Airport Elevation : 233 ft
- IATA code : REU


LERS - Reus Tarragona

CURRENT METAR :
  • 201300Z 20003KT 130V280 9999 FEW016 SCT020 12/08 Q1012

EXPIRED METARs :
  • 201230Z 23004KT 170V250 9999 SCT019 BKN025 12/08 Q1012
  • 201200Z 18003KT 120V250 9999 FEW018 SCT029 12/08 Q1013
  • 201130Z 19005KT 130V230 9999 SCT018 BKN027 12/08 Q1014
  • 201100Z 18005KT 120V240 9999 BKN019 BKN024 12/08 Q1014
  • 201030Z 14005KT 080V190 9999 SCT017 BKN023 13/08 Q1014

TAF TAF LERS
Valid from the 20 at 09:00 until the 21 at 09:00 UTC


200800Z 2009/2109 01006KT 9999 SCT012 TX15/2012Z TN04/2106Z
BECMG 2010/2012 17007KT
BECMG 2016/2018 VRB04KT



MET'MAP, your aeronautical weather chart ! - Copyright ORBIFLY December 2007 - Disclaimer

ORBIFLY MET'MAP TEAM :

Programming & Development : Alexandra Zaïnal
Concept & original design : Baudouin d'Aumeries
Assistance for programming : Marc-Olivier Méhu
Technical & hardware support : Manuel Goepfert

Contact : metmap@orbifly.com




SOURCES & CREDITS :

   NOAA